createdAt,value
2022-12-15T00:04:09.185Z,36.15
2022-12-15T00:09:31.177Z,37.84
2022-12-15T00:14:53.362Z,41.59
2022-12-15T00:20:15.083Z,53.48
2022-12-15T00:25:36.929Z,40.73
2022-12-15T00:31:02.227Z,35.57
2022-12-15T00:36:24.741Z,33.22
2022-12-15T00:41:27.523Z,30.53
2022-12-15T00:46:48.851Z,34.88
2022-12-15T00:52:10.605Z,37.72
2022-12-15T00:57:32.099Z,38.20
2022-12-15T01:02:53.459Z,52.97
2022-12-15T01:08:18.692Z,42.49
2022-12-15T01:13:40.146Z,36.95
2022-12-15T01:19:01.483Z,35.45
2022-12-15T01:24:04.796Z,34.23
2022-12-15T01:29:08.117Z,33.63
2022-12-15T01:34:10.912Z,32.81
2022-12-15T01:39:13.687Z,30.34
2022-12-15T01:44:25.401Z,37.13
2022-12-15T01:49:30.739Z,39.28
2022-12-15T01:54:49.654Z,41.39
2022-12-15T02:00:02.056Z,48.39
2022-12-15T02:05:06.309Z,55.07
2022-12-15T02:10:10.664Z,43.34
2022-12-15T02:15:37.732Z,38.84
2022-12-15T02:21:01.629Z,34.14
2022-12-15T02:26:25.416Z,34.64
2022-12-15T02:31:51.458Z,38.26
2022-12-15T02:37:17.081Z,43.08
2022-12-15T02:42:20.415Z,45.70
2022-12-15T02:47:47.169Z,57.99
2022-12-15T02:53:32.407Z,47.67
2022-12-15T02:58:56.654Z,40.88
2022-12-15T03:04:03.770Z,37.08
2022-12-15T03:09:06.693Z,34.72
2022-12-15T03:14:09.377Z,38.48
2022-12-15T03:19:12.085Z,40.50
2022-12-15T03:24:14.759Z,44.06
2022-12-15T03:29:18.318Z,46.36
2022-12-15T03:34:21.300Z,47.41
2022-12-15T03:39:24.010Z,61.16
2022-12-15T03:44:26.717Z,48.39
2022-12-15T03:49:29.510Z,42.01
2022-12-15T03:54:32.313Z,38.20
2022-12-15T03:59:35.304Z,36.76
2022-12-15T04:04:38.100Z,40.62
2022-12-15T04:09:41.435Z,42.52
2022-12-15T04:14:44.165Z,45.40
2022-12-15T04:20:05.466Z,45.97
2022-12-15T04:25:30.458Z,47.60
2022-12-15T04:30:52.062Z,62.24
2022-12-15T04:36:13.562Z,48.95
2022-12-15T04:41:38.171Z,42.60
2022-12-15T04:46:59.372Z,37.83
2022-12-15T04:52:21.062Z,38.27
2022-12-15T04:57:42.261Z,43.94
2022-12-15T05:03:03.738Z,45.10
2022-12-15T05:08:25.276Z,47.52
2022-12-15T05:13:46.714Z,47.60
2022-12-15T05:19:08.356Z,48.50
2022-12-15T05:24:29.490Z,61.90
2022-12-15T05:29:50.833Z,55.71
2022-12-15T05:34:53.512Z,45.72
2022-12-15T05:39:56.206Z,41.56
2022-12-15T05:44:58.934Z,37.91
2022-12-15T05:50:01.720Z,39.86
2022-12-15T05:55:05.994Z,42.00
2022-12-15T06:00:09.613Z,42.53
2022-12-15T06:05:12.556Z,44.79
2022-12-15T06:10:15.468Z,48.42
2022-12-15T06:15:18.185Z,54.49
2022-12-15T06:20:20.881Z,62.37
2022-12-15T06:25:23.639Z,58.99
2022-12-15T06:30:26.357Z,48.00
2022-12-15T06:35:29.489Z,43.03
2022-12-15T06:40:37.657Z,38.08
2022-12-15T06:45:49.721Z,41.75
2022-12-15T06:50:53.508Z,45.61
2022-12-15T06:56:01.827Z,49.23
2022-12-15T07:01:08.098Z,52.74
2022-12-15T07:06:13.554Z,54.81
2022-12-15T07:11:16.553Z,58.50
2022-12-15T07:16:21.764Z,63.22
2022-12-15T07:21:25.812Z,69.17
2022-12-15T07:26:35.763Z,53.73
2022-12-15T07:31:38.834Z,50.40
2022-12-15T07:36:44.607Z,57.54
2022-12-15T07:41:51.615Z,62.28
2022-12-15T07:46:57.783Z,66.44
2022-12-15T07:52:01.914Z,51.00
2022-12-15T07:57:07.629Z,46.87
2022-12-15T08:02:11.906Z,55.33
2022-12-15T08:07:15.355Z,64.06
2022-12-15T08:12:18.056Z,60.87
2022-12-15T08:17:21.281Z,48.85
2022-12-15T08:22:24.886Z,55.14
2022-12-15T08:27:30.202Z,62.93
2022-12-15T08:32:33.055Z,60.55
2022-12-15T08:37:35.986Z,51.42
2022-12-15T08:42:38.908Z,54.82
2022-12-15T08:47:42.348Z,63.58
2022-12-15T08:53:13.829Z,56.02
2022-12-15T08:58:13.001Z,53.93
2022-12-15T09:03:16.018Z,57.16
2022-12-15T09:08:19.125Z,65.65
2022-12-15T09:13:22.225Z,55.19
2022-12-15T09:18:25.506Z,50.86
2022-12-15T09:23:29.831Z,59.27
2022-12-15T09:28:33.225Z,59.62
2022-12-15T09:33:38.444Z,66.50
2022-12-15T09:38:54.887Z,51.23
2022-12-15T09:44:16.668Z,54.67
2022-12-15T09:49:28.802Z,59.51
2022-12-15T09:54:33.698Z,66.22
2022-12-15T09:59:39.201Z,56.73
2022-12-15T10:04:47.965Z,50.52
2022-12-15T10:09:53.784Z,55.60
2022-12-15T10:15:39.645Z,59.39
2022-12-15T10:20:57.173Z,68.90
2022-12-15T10:26:14.646Z,52.03
2022-12-15T10:31:29.863Z,56.07
2022-12-15T10:36:32.780Z,65.27
2022-12-15T10:41:35.595Z,52.22
2022-12-15T10:46:38.376Z,52.45
2022-12-15T10:51:52.172Z,59.00
2022-12-15T10:56:57.914Z,64.33
2022-12-15T11:02:26.436Z,53.22
2022-12-15T11:07:36.015Z,58.20
2022-12-15T11:12:52.055Z,62.84
2022-12-15T11:18:06.884Z,56.93
2022-12-15T11:23:25.798Z,60.99
2022-12-15T11:28:39.610Z,62.11
2022-12-15T11:33:42.374Z,52.26
2022-12-15T11:39:00.315Z,58.44
2022-12-15T11:44:18.330Z,61.90
2022-12-15T11:49:40.945Z,64.04
2022-12-15T11:54:53.106Z,51.58
2022-12-15T12:00:06.760Z,53.37
2022-12-15T12:05:21.751Z,59.07
2022-12-15T12:10:44.406Z,67.75
2022-12-15T12:16:14.378Z,58.47
2022-12-15T12:21:24.605Z,49.93
2022-12-15T12:27:06.312Z,54.76
2022-12-15T12:32:29.965Z,62.36
2022-12-15T12:37:43.504Z,61.43
2022-12-15T12:42:57.999Z,54.09
2022-12-15T12:48:09.512Z,60.93
2022-12-15T12:53:34.697Z,63.28
2022-12-15T12:58:39.800Z,49.08
2022-12-15T13:03:43.571Z,56.30
2022-12-15T13:08:55.818Z,63.31
2022-12-15T13:13:58.681Z,59.25
2022-12-15T13:19:08.238Z,56.67
2022-12-15T13:24:51.335Z,60.25
2022-12-15T13:30:03.783Z,66.81
2022-12-15T13:35:12.879Z,54.23
2022-12-15T13:40:54.917Z,52.83
2022-12-15T13:46:11.692Z,63.40
2022-12-15T13:51:34.957Z,56.43
2022-12-15T13:56:54.713Z,62.22
2022-12-15T14:01:59.694Z,60.63
2022-12-15T14:07:03.215Z,50.82
2022-12-15T14:12:12.129Z,53.97
2022-12-15T14:17:17.987Z,65.33
2022-12-15T14:22:28.963Z,57.07
2022-12-15T14:27:33.976Z,54.15
2022-12-15T14:32:37.281Z,62.02
2022-12-15T14:37:40.795Z,60.53
2022-12-15T14:42:45.073Z,55.83
2022-12-15T14:48:39.076Z,61.45
2022-12-15T14:53:23.666Z,63.47
2022-12-15T14:58:36.077Z,54.20
2022-12-15T15:03:41.269Z,61.17
2022-12-15T15:08:52.730Z,62.39
2022-12-15T15:14:05.052Z,55.11
2022-12-15T15:19:08.080Z,62.00
2022-12-15T15:24:10.913Z,60.58
2022-12-15T15:29:34.256Z,57.59
2022-12-15T15:34:37.005Z,65.08
2022-12-15T15:39:40.133Z,59.55
2022-12-15T15:44:43.105Z,55.59
2022-12-15T15:49:46.820Z,64.94
2022-12-15T15:54:50.637Z,61.63
2022-12-15T15:59:53.977Z,53.34
2022-12-15T16:04:56.879Z,53.96
2022-12-15T16:09:59.884Z,62.02
2022-12-15T16:15:02.769Z,68.69
2022-12-15T16:20:06.679Z,55.43
2022-12-15T16:25:17.207Z,53.36
2022-12-15T16:30:24.205Z,62.64
2022-12-15T16:35:26.997Z,63.40
2022-12-15T16:40:30.016Z,51.95
2022-12-15T16:45:32.719Z,56.05
2022-12-15T16:50:38.135Z,62.95
2022-12-15T16:55:41.847Z,58.16
2022-12-15T17:00:45.552Z,52.40
2022-12-15T17:05:50.339Z,58.67
2022-12-15T17:10:53.880Z,62.06
2022-12-15T17:15:56.844Z,56.30
2022-12-15T17:21:17.299Z,62.02
2022-12-15T17:26:29.135Z,62.87
2022-12-15T17:31:35.662Z,52.60
2022-12-15T17:36:39.116Z,57.39
2022-12-15T17:41:59.463Z,63.65
2022-12-15T17:47:05.685Z,55.37
2022-12-15T17:52:22.849Z,53.42
2022-12-15T17:57:25.861Z,61.33
2022-12-15T18:02:29.072Z,67.98
2022-12-15T18:07:32.174Z,58.55
2022-12-15T18:12:36.306Z,54.78
2022-12-15T18:17:38.989Z,63.05
2022-12-15T18:22:42.019Z,58.25
2022-12-15T18:27:45.124Z,61.27
2022-12-15T18:32:49.214Z,67.43
2022-12-15T18:37:52.669Z,60.79
2022-12-15T18:42:56.602Z,51.24
2022-12-15T18:47:59.280Z,55.81
2022-12-15T18:53:02.796Z,62.94
2022-12-15T18:58:05.614Z,57.23
2022-12-15T19:03:08.335Z,54.97
2022-12-15T19:08:25.753Z,63.67
2022-12-15T19:13:31.747Z,57.90
2022-12-15T19:18:53.376Z,55.68
2022-12-15T19:23:56.777Z,67.16
2022-12-15T19:28:59.600Z,57.80
2022-12-15T19:34:02.396Z,53.95
2022-12-15T19:39:06.937Z,62.83
2022-12-15T19:44:14.682Z,58.70
2022-12-15T19:49:17.384Z,55.75
2022-12-15T19:54:22.575Z,63.19
2022-12-15T19:59:26.850Z,58.81
2022-12-15T20:04:32.213Z,52.65
2022-12-15T20:09:34.933Z,61.59
2022-12-15T20:14:37.808Z,59.36
2022-12-15T20:19:40.788Z,53.98
2022-12-15T20:24:45.552Z,59.88
2022-12-15T20:29:48.306Z,60.15
2022-12-15T20:34:51.064Z,57.53
2022-12-15T20:39:57.421Z,62.63
2022-12-15T20:45:00.706Z,57.87
2022-12-15T20:50:03.718Z,62.66
2022-12-15T20:55:10.028Z,59.07
2022-12-15T21:00:14.160Z,53.91
2022-12-15T21:05:19.956Z,62.48
2022-12-15T21:10:22.675Z,58.46
2022-12-15T21:15:25.354Z,53.68
2022-12-15T21:20:28.052Z,62.32
2022-12-15T21:25:30.854Z,59.70
2022-12-15T21:30:35.215Z,56.41
2022-12-15T21:35:40.469Z,62.01
2022-12-15T21:40:43.176Z,65.32
2022-12-15T21:45:45.980Z,54.53
2022-12-15T21:50:48.726Z,60.45
2022-12-15T21:55:51.552Z,62.87
2022-12-15T22:00:54.354Z,54.38
2022-12-15T22:05:57.260Z,58.43
2022-12-15T22:11:00.070Z,63.44
2022-12-15T22:16:02.864Z,54.64
2022-12-15T22:21:07.804Z,57.73
2022-12-15T22:26:21.193Z,64.60
2022-12-15T22:31:23.992Z,57.42
2022-12-15T22:36:26.874Z,60.83
2022-12-15T22:41:29.769Z,62.14
2022-12-15T22:46:32.727Z,55.22
2022-12-15T22:51:35.578Z,61.22
2022-12-15T22:56:39.921Z,63.81
2022-12-15T23:01:42.761Z,56.08
2022-12-15T23:06:45.606Z,61.03
2022-12-15T23:11:48.528Z,62.97
2022-12-15T23:16:51.228Z,53.94
2022-12-15T23:21:54.024Z,54.99
2022-12-15T23:26:56.836Z,63.15
2022-12-15T23:31:59.572Z,60.79
2022-12-15T23:37:02.545Z,50.86
2022-12-15T23:42:06.049Z,58.74
2022-12-15T23:47:08.793Z,62.81
2022-12-15T23:52:11.939Z,66.70
2022-12-15T23:57:14.761Z,54.13
